GLD1620 SBPA-SBSP
Flight info
| Callsign | GLD1620 |
|---|---|
| Flight time | N/A |
| Altitude | 39000 |
| Route | KORG2A ANLER UM540 ANISE ANIS1A |
| Aircraft | A20N/M-SDE2E3FGHIRWXY/LB1 |
Departure
| Time | 2026-04-30 03:47 |
|---|---|
| Airport | Porto Alegre-Salgado Filho International Airport (SBPA) |
Arrival
| Time | N/A |
|---|---|
| Airport | Congonhas–Deputado Freitas Nobre Airport (SBSP) |
| Time | Latitude | Longitude | Altitude | Speed | Heading |
|---|---|---|---|---|---|
| 2026-04-30 03:44 | -29.99179 | -51.17511 | 19 ft | 16 kts | 271° |
| 2026-04-30 03:44 | -29.99173 | -51.17664 | 19 ft | 22 kts | 266° |
| 2026-04-30 03:45 | -29.99153 | -51.17854 | 19 ft | 25 kts | 279° |
| 2026-04-30 03:45 | -29.99134 | -51.18009 | 20 ft | 8 kts | 234° |
| 2026-04-30 03:45 | -29.99188 | -51.18034 | 19 ft | 12 kts | 220° |
| 2026-04-30 03:45 | -29.99257 | -51.18140 | 20 ft | 20 kts | 242° |
| 2026-04-30 03:46 | -29.99274 | -51.18173 | 20 ft | 0 kts | 233° |
| 2026-04-30 03:46 | -29.99281 | -51.18180 | 19 ft | 5 kts | 218° |
| 2026-04-30 03:46 | -29.99326 | -51.18202 | 19 ft | 10 kts | 228° |
| 2026-04-30 03:46 | -29.99402 | -51.18261 | 21 ft | 15 kts | 181° |
| 2026-04-30 03:47 | -29.99437 | -51.18198 | 21 ft | 18 kts | 95° |
| 2026-04-30 03:47 | -29.99449 | -51.17613 | 23 ft | 130 kts | 91° |
| 2026-04-30 03:47 | -29.99477 | -51.16260 | 352 ft | 193 kts | 91° |
| 2026-04-30 03:47 | -29.99540 | -51.14583 | 885 ft | 217 kts | 92° |
| 2026-04-30 03:48 | -29.99637 | -51.12969 | 1252 ft | 193 kts | 93° |
| 2026-04-30 03:48 | -29.99675 | -51.11459 | 1666 ft | 185 kts | 89° |
| 2026-04-30 03:48 | -29.99667 | -51.09928 | 2071 ft | 210 kts | 89° |
| 2026-04-30 03:48 | -29.99660 | -51.08133 | 2920 ft | 235 kts | 90° |
| 2026-04-30 03:49 | -29.99668 | -51.06185 | 4015 ft | 248 kts | 92° |
| 2026-04-30 03:49 | -29.99692 | -51.04171 | 5297 ft | 254 kts | 92° |
| 2026-04-30 03:49 | -29.99728 | -51.02116 | 6549 ft | 260 kts | 92° |
| 2026-04-30 03:49 | -29.99768 | -51.00007 | 7718 ft | 266 kts | 92° |
| 2026-04-30 03:50 | -29.99806 | -50.97848 | 8889 ft | 273 kts | 90° |
| 2026-04-30 03:50 | -29.99459 | -50.95692 | 10010 ft | 278 kts | 65° |
| 2026-04-30 03:50 | -29.98344 | -50.93861 | 10659 ft | 284 kts | 41° |
| 2026-04-30 03:50 | -29.96763 | -50.92476 | 10512 ft | 285 kts | 31° |
| 2026-04-30 03:51 | -29.95082 | -50.91271 | 10161 ft | 280 kts | 28° |
| 2026-04-30 03:51 | -29.93278 | -50.90017 | 10038 ft | 330 kts | 30° |
| 2026-04-30 03:51 | -29.91261 | -50.88561 | 10025 ft | 344 kts | 31° |
| 2026-04-30 03:51 | -29.89306 | -50.87089 | 10023 ft | 327 kts | 32° |
| 2026-04-30 03:52 | -29.87486 | -50.85690 | 10020 ft | 307 kts | 32° |
| 2026-04-30 03:52 | -29.85750 | -50.84348 | 10029 ft | 301 kts | 32° |
| 2026-04-30 03:52 | -29.83900 | -50.82927 | 10027 ft | 340 kts | 32° |
| 2026-04-30 03:52 | -29.81912 | -50.81402 | 10025 ft | 343 kts | 32° |
| 2026-04-30 03:53 | -29.80003 | -50.79931 | 10023 ft | 325 kts | 32° |
| 2026-04-30 03:53 | -29.78215 | -50.78549 | 9969 ft | 310 kts | 32° |
| 2026-04-30 03:53 | -29.76395 | -50.77136 | 10100 ft | 306 kts | 32° |
| 2026-04-30 03:53 | -29.74552 | -50.75710 | 10217 ft | 324 kts | 32° |
| 2026-04-30 03:54 | -29.73253 | -50.74706 | 10443 ft | 344 kts | 32° |
| 2026-04-30 03:54 | -29.71176 | -50.73099 | 11416 ft | 356 kts | 32° |
| 2026-04-30 03:54 | -29.69097 | -50.71491 | 12508 ft | 365 kts | 32° |
| 2026-04-30 03:54 | -29.66949 | -50.69832 | 13586 ft | 375 kts | 32° |
| 2026-04-30 03:55 | -29.64767 | -50.68147 | 14597 ft | 383 kts | 31° |
| 2026-04-30 03:55 | -29.62534 | -50.66421 | 15642 ft | 389 kts | 30° |
| 2026-04-30 03:55 | -29.60287 | -50.64684 | 16644 ft | 396 kts | 29° |
| 2026-04-30 03:55 | -29.58136 | -50.63023 | 17573 ft | 402 kts | 28° |
| 2026-04-30 03:56 | -29.55687 | -50.61133 | 18571 ft | 409 kts | 28° |
| 2026-04-30 03:56 | -29.53262 | -50.59265 | 19346 ft | 417 kts | 28° |
| 2026-04-30 03:56 | -29.50838 | -50.57401 | 20125 ft | 425 kts | 27° |